createdAt,value
2019-02-06T00:02:19.691Z,1.73
2019-02-06T00:04:50.327Z,1.80
2019-02-06T00:07:22.511Z,1.78
2019-02-06T00:09:56.119Z,1.69
2019-02-06T00:12:26.937Z,1.69
2019-02-06T00:14:59.177Z,1.60
2019-02-06T00:17:33.944Z,1.49
2019-02-06T00:20:06.554Z,1.42
2019-02-06T00:22:40.554Z,1.40
2019-02-06T00:25:12.757Z,1.52
2019-02-06T00:27:49.832Z,1.53
2019-02-06T00:30:23.392Z,1.53
2019-02-06T00:32:55.705Z,1.53
2019-02-06T00:35:26.454Z,1.59
2019-02-06T00:37:58.679Z,1.59
2019-02-06T00:40:29.052Z,1.53
2019-02-06T00:43:08.472Z,1.54
2019-02-06T00:45:42.857Z,1.60
2019-02-06T00:48:27.702Z,1.55
2019-02-06T00:51:01.241Z,1.51
2019-02-06T00:53:36.611Z,1.46
2019-02-06T00:56:08.313Z,1.32
2019-02-06T00:58:38.727Z,1.32
2019-02-06T01:01:09.354Z,1.33
2019-02-06T01:03:40.048Z,1.33
2019-02-06T01:06:13.087Z,1.35
2019-02-06T01:08:48.753Z,1.26
2019-02-06T01:11:19.229Z,1.23
2019-02-06T01:14:14.507Z,1.16
2019-02-06T01:16:29.686Z,1.06
2019-02-06T01:19:35.919Z,1.09
2019-02-06T01:21:37.480Z,1.13
2019-02-06T01:24:07.822Z,1.13
2019-02-06T01:26:38.862Z,1.17
2019-02-06T01:29:09.616Z,1.20
2019-02-06T01:31:44.799Z,1.11
2019-02-06T01:34:18.354Z,1.15
2019-02-06T01:36:53.300Z,1.23
2019-02-06T01:39:27.271Z,1.35
2019-02-06T01:41:57.615Z,1.31
2019-02-06T01:44:28.968Z,1.51
2019-02-06T01:46:59.612Z,1.56
2019-02-06T01:49:30.204Z,1.59
2019-02-06T01:52:02.152Z,1.52
2019-02-06T01:54:35.195Z,1.53
2019-02-06T01:57:10.238Z,1.61
2019-02-06T01:59:40.648Z,1.72
2019-02-06T02:02:11.836Z,1.74
2019-02-06T02:04:42.434Z,1.73
2019-02-06T02:07:13.088Z,1.74
2019-02-06T02:09:43.831Z,1.76
2019-02-06T02:12:19.393Z,1.74
2019-02-06T02:14:53.907Z,1.77
2019-02-06T02:17:29.147Z,1.79
2019-02-06T02:20:01.042Z,1.74
2019-02-06T02:22:33.350Z,1.84
2019-02-06T02:25:06.328Z,1.89
2019-02-06T02:27:36.977Z,1.85
2019-02-06T02:30:09.709Z,1.89
2019-02-06T02:32:40.089Z,1.93
2019-02-06T02:35:13.700Z,1.99
2019-02-06T02:37:48.739Z,1.91
2019-02-06T02:40:24.466Z,1.84
2019-02-06T02:42:56.426Z,1.87
2019-02-06T02:45:31.211Z,1.85
2019-02-06T02:48:01.892Z,1.83
2019-02-06T02:50:32.284Z,1.81
2019-02-06T02:53:02.631Z,1.82
2019-02-06T02:55:34.136Z,1.81
2019-02-06T02:58:10.698Z,1.85
2019-02-06T03:01:04.598Z,1.88
2019-02-06T03:03:55.003Z,1.89
2019-02-06T03:06:28.721Z,1.89
2019-02-06T03:09:03.279Z,1.86
2019-02-06T03:11:37.220Z,1.86
2019-02-06T03:14:09.197Z,1.87
2019-02-06T03:16:45.120Z,1.89
2019-02-06T03:19:20.605Z,1.90
2019-02-06T03:21:50.546Z,1.80
2019-02-06T03:24:21.575Z,1.79
2019-02-06T03:26:52.477Z,1.80
2019-02-06T03:29:24.580Z,1.80
2019-02-06T03:31:56.401Z,1.85
2019-02-06T03:34:29.630Z,1.89
2019-02-06T03:37:02.458Z,1.89
2019-02-06T03:39:38.061Z,1.84
2019-02-06T03:42:09.952Z,1.79
2019-02-06T03:44:40.213Z,1.78
2019-02-06T03:47:10.844Z,1.85
2019-02-06T03:49:42.796Z,1.96
2019-02-06T03:52:13.214Z,1.96
2019-02-06T03:54:43.898Z,1.91
2019-02-06T03:57:15.327Z,1.88
2019-02-06T03:59:47.578Z,1.89
2019-02-06T04:02:19.163Z,1.98
2019-02-06T04:04:55.250Z,2.06
2019-02-06T04:07:29.014Z,2.04
2019-02-06T04:10:03.272Z,1.99
2019-02-06T04:12:39.193Z,1.98
2019-02-06T04:15:09.922Z,2.02
2019-02-06T04:17:40.506Z,2.14
2019-02-06T04:20:11.655Z,2.11
2019-02-06T04:22:41.962Z,2.02
2019-02-06T04:25:14.228Z,1.93
2019-02-06T04:28:01.940Z,1.89
2019-02-06T04:30:26.909Z,1.88
2019-02-06T04:33:01.515Z,1.92
2019-02-06T04:35:33.437Z,1.95
2019-02-06T04:38:05.398Z,1.93
2019-02-06T04:40:36.126Z,1.93
2019-02-06T04:43:06.917Z,2.02
2019-02-06T04:45:37.572Z,1.82
2019-02-06T04:48:09.114Z,1.82
2019-02-06T04:50:46.647Z,1.88
2019-02-06T04:53:21.666Z,1.96
2019-02-06T04:55:53.533Z,1.98
2019-02-06T04:58:24.134Z,2.01
2019-02-06T05:00:54.491Z,2.08
2019-02-06T05:03:25.782Z,2.14
2019-02-06T05:05:56.302Z,2.17
2019-02-06T05:08:29.011Z,2.10
2019-02-06T05:10:59.289Z,2.06
2019-02-06T05:13:31.537Z,2.07
2019-02-06T05:16:02.226Z,2.08
2019-02-06T05:18:32.978Z,2.01
2019-02-06T05:21:04.915Z,2.04
2019-02-06T05:23:35.264Z,1.98
2019-02-06T05:26:16.981Z,1.98
2019-02-06T05:28:55.179Z,2.01
2019-02-06T05:31:25.587Z,2.00
2019-02-06T05:34:03.531Z,2.04
2019-02-06T05:36:34.013Z,2.08
2019-02-06T05:39:07.045Z,2.02
2019-02-06T05:41:38.189Z,1.99
2019-02-06T05:44:08.486Z,2.15
2019-02-06T05:49:26.117Z,2.15
2019-02-06T05:51:56.460Z,2.24
2019-02-06T05:54:27.955Z,2.24
2019-02-06T05:56:58.492Z,2.23
2019-02-06T05:59:32.149Z,2.26
2019-02-06T06:02:05.329Z,2.26
2019-02-06T06:04:39.229Z,2.27
2019-02-06T06:07:14.722Z,2.18
2019-02-06T06:09:45.392Z,2.14
2019-02-06T06:12:17.435Z,2.20
2019-02-06T06:14:48.109Z,2.26
2019-02-06T06:17:18.451Z,2.36
2019-02-06T06:19:50.533Z,2.39
2019-02-06T06:22:40.929Z,2.46
2019-02-06T06:25:12.489Z,2.42
2019-02-06T06:27:51.676Z,2.40
2019-02-06T06:30:26.500Z,2.44
2019-02-06T06:33:02.623Z,2.46
2019-02-06T06:35:38.248Z,2.46
2019-02-06T06:38:09.271Z,2.53
2019-02-06T06:40:39.610Z,2.52
2019-02-06T06:43:10.219Z,2.49
2019-02-06T06:45:42.648Z,2.42
2019-02-06T06:48:13.985Z,2.36
2019-02-06T06:50:46.890Z,2.30
2019-02-06T06:53:20.877Z,2.23
2019-02-06T06:55:53.867Z,2.23
2019-02-06T06:58:25.099Z,2.36
2019-02-06T07:00:56.969Z,2.39
2019-02-06T07:03:29.590Z,2.37
2019-02-06T07:05:59.895Z,2.37
2019-02-06T07:08:35.531Z,2.43
2019-02-06T07:11:08.553Z,2.50
2019-02-06T07:13:40.223Z,2.46
2019-02-06T07:16:10.815Z,2.53
2019-02-06T07:18:42.636Z,2.61
2019-02-06T07:21:12.912Z,2.73
2019-02-06T07:23:46.762Z,2.79
2019-02-06T07:26:24.987Z,2.74
2019-02-06T07:28:56.197Z,2.74
2019-02-06T07:31:31.800Z,2.74
2019-02-06T07:34:03.371Z,2.85
2019-02-06T07:36:33.679Z,2.93
2019-02-06T07:39:07.665Z,3.04
2019-02-06T07:41:40.377Z,3.10
2019-02-06T07:44:13.368Z,3.18
2019-02-06T07:46:45.340Z,3.25
2019-02-06T07:49:18.584Z,3.35
2019-02-06T07:51:52.792Z,3.41
2019-02-06T07:54:30.990Z,3.45
2019-02-06T07:57:07.463Z,3.50
2019-02-06T07:59:33.570Z,3.55
2019-02-06T08:02:03.992Z,3.59
2019-02-06T08:04:34.743Z,3.62
2019-02-06T08:07:05.070Z,3.68
2019-02-06T08:09:40.715Z,3.74
2019-02-06T08:12:11.149Z,3.81
2019-02-06T08:14:49.695Z,3.87
2019-02-06T08:17:35.767Z,4.03
2019-02-06T08:20:13.588Z,4.03
2019-02-06T08:22:45.828Z,4.10
2019-02-06T08:25:28.619Z,4.14
2019-02-06T08:28:00.860Z,4.21
2019-02-06T08:30:36.347Z,4.26
2019-02-06T08:33:06.861Z,4.31
2019-02-06T08:35:38.393Z,4.35
2019-02-06T08:38:09.929Z,4.40
2019-02-06T08:40:46.178Z,4.45
2019-02-06T08:43:13.930Z,4.50
2019-02-06T08:45:47.955Z,4.56
2019-02-06T08:48:30.261Z,4.61
2019-02-06T08:51:00.276Z,4.67
2019-02-06T08:53:30.861Z,4.75
2019-02-06T08:56:01.503Z,4.84
2019-02-06T08:58:32.192Z,4.91
2019-02-06T09:01:02.963Z,4.97
2019-02-06T09:03:39.970Z,4.99
2019-02-06T09:06:17.302Z,5.02
2019-02-06T09:08:59.187Z,5.04
2019-02-06T09:11:32.074Z,5.10
2019-02-06T09:14:12.259Z,5.18
2019-02-06T09:16:43.108Z,5.31
2019-02-06T09:19:13.487Z,5.45
2019-02-06T09:21:43.806Z,5.55
2019-02-06T09:24:14.077Z,5.73
2019-02-06T09:26:46.154Z,6.13
2019-02-06T09:29:16.786Z,6.13
2019-02-06T09:31:51.149Z,6.47
2019-02-06T09:34:23.357Z,6.87
2019-02-06T09:36:59.173Z,7.07
2019-02-06T09:39:29.634Z,7.28
2019-02-06T09:41:59.934Z,7.48
2019-02-06T09:44:31.270Z,7.63
2019-02-06T09:47:07.950Z,7.92
2019-02-06T09:49:38.337Z,7.98
2019-02-06T09:52:08.663Z,8.01
2019-02-06T09:54:39.001Z,8.13
2019-02-06T09:57:09.364Z,8.62
2019-02-06T09:59:49.595Z,8.75
2019-02-06T10:02:26.755Z,8.96
2019-02-06T10:05:05.757Z,8.85
2019-02-06T10:08:15.189Z,8.45
2019-02-06T10:10:19.650Z,8.29
2019-02-06T10:12:57.169Z,8.12
2019-02-06T10:15:38.149Z,7.87
2019-02-06T10:18:13.614Z,7.83
2019-02-06T10:20:48.644Z,7.67
2019-02-06T10:23:20.873Z,7.67
2019-02-06T10:25:53.679Z,7.57
2019-02-06T10:28:24.227Z,7.61
2019-02-06T10:30:57.143Z,7.51
2019-02-06T10:33:29.584Z,7.65
2019-02-06T10:36:03.325Z,7.77
2019-02-06T10:38:51.162Z,7.97
2019-02-06T10:41:24.002Z,8.09
2019-02-06T10:43:54.560Z,8.22
2019-02-06T10:46:26.493Z,8.44
2019-02-06T10:48:56.892Z,8.56
2019-02-06T10:51:27.551Z,8.72
2019-02-06T10:53:58.336Z,8.75
2019-02-06T10:56:34.686Z,8.60
2019-02-06T10:59:11.470Z,8.53
2019-02-06T11:01:46.521Z,8.47
2019-02-06T11:04:17.949Z,8.46
2019-02-06T11:06:51.322Z,8.32
2019-02-06T11:09:21.569Z,8.30
2019-02-06T11:11:51.869Z,8.13
2019-02-06T11:14:22.574Z,8.19
2019-02-06T11:16:52.932Z,8.23
2019-02-06T11:19:26.621Z,8.31
2019-02-06T11:21:59.052Z,8.40
2019-02-06T11:24:33.677Z,8.40
2019-02-06T11:27:07.363Z,8.37
2019-02-06T11:29:38.758Z,8.56
2019-02-06T11:32:09.103Z,8.79
2019-02-06T11:34:39.724Z,9.02
2019-02-06T11:37:10.088Z,9.07
2019-02-06T11:39:40.686Z,9.10
2019-02-06T11:42:15.651Z,9.17
2019-02-06T11:44:58.507Z,9.23
2019-02-06T11:47:37.187Z,9.41
2019-02-06T11:50:12.357Z,9.34
2019-02-06T11:52:42.960Z,9.32
2019-02-06T11:55:16.179Z,9.32
2019-02-06T11:57:46.809Z,9.48
2019-02-06T12:00:43.800Z,9.58
2019-02-06T12:03:14.495Z,9.64
2019-02-06T12:05:46.858Z,9.57
2019-02-06T12:08:23.360Z,9.66
2019-02-06T12:10:51.715Z,9.47
2019-02-06T12:13:24.967Z,9.29
2019-02-06T12:16:07.511Z,9.22
2019-02-06T12:18:33.172Z,9.10
2019-02-06T12:21:05.569Z,9.16
2019-02-06T12:23:36.249Z,9.30
2019-02-06T12:26:07.817Z,9.35
2019-02-06T12:28:42.087Z,9.43
2019-02-06T12:31:11.301Z,9.38
2019-02-06T12:33:41.688Z,9.21
2019-02-06T12:36:15.259Z,9.19
2019-02-06T12:38:53.153Z,9.27
2019-02-06T12:41:16.592Z,9.49
2019-02-06T12:43:57.732Z,9.76
2019-02-06T12:46:23.715Z,9.79
2019-02-06T12:48:57.719Z,9.86
2019-02-06T12:51:29.770Z,9.91
2019-02-06T12:54:00.037Z,9.89
2019-02-06T12:56:31.024Z,9.76
2019-02-06T12:59:02.425Z,9.66
2019-02-06T13:01:35.297Z,9.62
2019-02-06T13:04:08.911Z,9.62
2019-02-06T13:06:43.817Z,9.50
2019-02-06T13:09:19.408Z,9.59
2019-02-06T13:11:56.632Z,9.75
2019-02-06T13:14:25.550Z,9.87
2019-02-06T13:16:58.032Z,9.86
2019-02-06T13:19:28.518Z,9.87
2019-02-06T13:21:59.733Z,9.83
2019-02-06T13:24:30.350Z,9.78
2019-02-06T13:27:04.401Z,9.80
2019-02-06T13:29:41.165Z,9.67
2019-02-06T13:32:16.731Z,9.67
2019-02-06T13:35:11.079Z,9.78
2019-02-06T13:37:47.491Z,9.83
2019-02-06T13:40:20.184Z,9.89
2019-02-06T13:42:58.994Z,9.89
2019-02-06T13:45:35.708Z,9.95
2019-02-06T13:48:06.763Z,10.04
2019-02-06T13:50:37.641Z,10.11
2019-02-06T13:53:14.360Z,10.18
2019-02-06T13:55:47.803Z,10.22
2019-02-06T13:58:22.591Z,10.22
2019-02-06T14:01:00.285Z,10.13
2019-02-06T14:03:29.400Z,10.06
2019-02-06T14:06:00.051Z,9.96
2019-02-06T14:08:32.494Z,9.93
2019-02-06T14:11:03.450Z,9.97
2019-02-06T14:13:36.665Z,9.92
2019-02-06T14:16:07.981Z,9.94
2019-02-06T14:18:48.043Z,10.28
2019-02-06T14:21:22.424Z,10.28
2019-02-06T14:24:07.502Z,10.47
2019-02-06T14:27:02.166Z,10.43
2019-02-06T14:30:02.858Z,10.46
2019-02-06T14:33:08.591Z,10.49
2019-02-06T14:35:52.859Z,10.55
2019-02-06T14:38:56.516Z,10.58
2019-02-06T14:41:35.998Z,10.63
2019-02-06T14:44:38.673Z,10.57
2019-02-06T14:47:32.198Z,10.61
2019-02-06T14:50:33.425Z,10.61
2019-02-06T14:53:46.999Z,10.52
2019-02-06T14:57:16.409Z,10.37
2019-02-06T15:00:30.104Z,10.23
2019-02-06T15:03:51.885Z,10.10
2019-02-06T15:07:04.605Z,10.02
2019-02-06T15:10:07.455Z,10.01
2019-02-06T15:13:30.634Z,10.02
2019-02-06T15:16:22.330Z,10.05
2019-02-06T15:19:48.070Z,10.08
2019-02-06T15:23:05.537Z,10.10
2019-02-06T15:26:08.525Z,10.13
2019-02-06T15:29:01.941Z,10.14
2019-02-06T15:35:15.266Z,10.10
2019-02-06T15:38:16.378Z,10.06
2019-02-06T15:41:31.639Z,9.95
2019-02-06T15:44:33.176Z,9.87
2019-02-06T15:47:33.140Z,9.80
2019-02-06T15:50:32.230Z,9.66
2019-02-06T15:53:54.357Z,9.58
2019-02-06T15:57:11.675Z,9.56
2019-02-06T16:00:13.055Z,9.56
2019-02-06T16:03:16.930Z,9.56
2019-02-06T16:06:23.449Z,9.53
2019-02-06T16:09:30.106Z,9.53
2019-02-06T16:12:44.925Z,9.52
2019-02-06T16:15:43.971Z,9.47
2019-02-06T16:19:11.028Z,9.43
2019-02-06T16:22:19.340Z,9.43
2019-02-06T16:25:20.558Z,9.41
2019-02-06T16:28:25.732Z,9.37
2019-02-06T16:31:31.674Z,9.33
2019-02-06T16:34:24.823Z,9.31
2019-02-06T16:37:09.429Z,9.29
2019-02-06T16:40:02.482Z,9.27
2019-02-06T16:43:08.484Z,9.25
2019-02-06T16:46:27.242Z,9.24
2019-02-06T16:49:18.568Z,9.21
2019-02-06T16:52:19.690Z,9.19
2019-02-06T16:55:25.060Z,9.18
2019-02-06T16:58:35.076Z,9.17
2019-02-06T17:01:47.034Z,9.15
2019-02-06T17:05:06.303Z,9.14
2019-02-06T17:08:17.744Z,9.11
2019-02-06T17:11:07.538Z,9.08
2019-02-06T17:14:21.496Z,9.06
2019-02-06T17:16:59.330Z,9.02
2019-02-06T17:19:42.885Z,9.01
2019-02-06T17:22:44.072Z,9.03
2019-02-06T17:26:00.720Z,9.05
2019-02-06T17:29:10.664Z,9.11
2019-02-06T17:32:35.974Z,9.13
2019-02-06T17:35:39.183Z,9.12
2019-02-06T17:38:37.061Z,9.11
2019-02-06T17:41:41.871Z,9.11
2019-02-06T17:44:48.632Z,9.09
2019-02-06T17:48:09.018Z,9.06
2019-02-06T17:51:19.653Z,9.03
2019-02-06T17:54:23.813Z,9.01
2019-02-06T17:56:55.384Z,8.99
2019-02-06T17:59:25.914Z,8.98
2019-02-06T18:01:56.844Z,8.97
2019-02-06T18:04:39.927Z,8.96
2019-02-06T18:07:14.543Z,8.96
2019-02-06T18:09:47.704Z,8.95
2019-02-06T18:12:26.176Z,8.93
2019-02-06T18:14:51.399Z,8.90
2019-02-06T18:17:21.743Z,8.87
2019-02-06T18:19:52.199Z,8.86
2019-02-06T18:22:24.516Z,8.82
2019-02-06T18:24:58.887Z,8.80
2019-02-06T18:27:40.085Z,8.77
2019-02-06T18:30:14.939Z,8.66
2019-02-06T18:32:45.549Z,8.40
2019-02-06T18:35:16.491Z,8.12
2019-02-06T18:37:50.019Z,7.86
2019-02-06T18:40:26.118Z,7.70
2019-02-06T18:43:04.044Z,7.62
2019-02-06T18:45:38.549Z,7.54
2019-02-06T18:48:13.752Z,7.54
2019-02-06T18:50:42.498Z,7.52
2019-02-06T18:53:13.142Z,7.52
2019-02-06T18:55:43.798Z,7.60
2019-02-06T18:58:14.167Z,7.59
2019-02-06T19:00:50.529Z,7.60
2019-02-06T19:03:26.698Z,7.59
2019-02-06T19:06:01.577Z,7.60
2019-02-06T19:08:32.311Z,7.59
2019-02-06T19:11:04.486Z,7.58
2019-02-06T19:13:35.142Z,7.56
2019-02-06T19:16:10.123Z,7.53
2019-02-06T19:18:44.457Z,7.51
2019-02-06T19:21:29.509Z,7.49
2019-02-06T19:24:03.584Z,7.42
2019-02-06T19:26:34.244Z,7.41
2019-02-06T19:29:08.156Z,7.39
2019-02-06T19:31:40.455Z,7.37
2019-02-06T19:34:11.905Z,7.34
2019-02-06T19:36:42.337Z,7.31
2019-02-06T19:39:14.081Z,7.29
2019-02-06T19:41:47.267Z,7.28
2019-02-06T19:44:23.143Z,7.27
2019-02-06T19:46:57.714Z,7.27
2019-02-06T19:49:29.981Z,7.31
2019-02-06T19:52:01.970Z,7.31
2019-02-06T19:54:32.512Z,7.31
2019-02-06T19:57:09.455Z,7.27
2019-02-06T19:59:42.550Z,7.24
2019-02-06T20:02:14.827Z,7.20
2019-02-06T20:04:47.386Z,7.17
2019-02-06T20:07:17.697Z,7.15
2019-02-06T20:09:49.970Z,7.14
2019-02-06T20:12:20.477Z,7.11
2019-02-06T20:14:50.881Z,7.10
2019-02-06T20:17:21.665Z,7.07
2019-02-06T20:19:52.159Z,7.06
2019-02-06T20:25:16.893Z,7.05
2019-02-06T20:27:49.589Z,7.01
2019-02-06T20:30:36.843Z,6.97
2019-02-06T20:33:10.159Z,6.94
2019-02-06T20:35:45.184Z,6.92
2019-02-06T20:38:20.015Z,6.89
2019-02-06T20:40:50.343Z,6.84
2019-02-06T20:43:22.375Z,6.80
2019-02-06T20:45:56.714Z,6.79
2019-02-06T20:48:31.907Z,6.77
2019-02-06T20:51:06.871Z,6.77
2019-02-06T20:53:37.761Z,6.70
2019-02-06T20:56:08.369Z,6.57
2019-02-06T20:58:42.801Z,6.49
2019-02-06T21:01:14.577Z,6.43
2019-02-06T21:03:57.324Z,6.34
2019-02-06T21:06:26.087Z,6.34
2019-02-06T21:08:58.081Z,6.25
2019-02-06T21:11:29.108Z,5.99
2019-02-06T21:13:59.626Z,5.78
2019-02-06T21:16:37.163Z,5.60
2019-02-06T21:19:12.168Z,5.49
2019-02-06T21:21:49.309Z,5.41
2019-02-06T21:24:29.449Z,5.37
2019-02-06T21:26:55.011Z,5.30
2019-02-06T21:29:26.033Z,5.31
2019-02-06T21:31:56.835Z,5.30
2019-02-06T21:34:50.042Z,5.32
2019-02-06T21:37:14.344Z,5.32
2019-02-06T21:39:46.636Z,5.35
2019-02-06T21:42:18.928Z,5.38
2019-02-06T21:44:49.260Z,5.38
2019-02-06T21:47:36.252Z,5.47
2019-02-06T21:50:01.835Z,5.52
2019-02-06T21:52:37.991Z,5.52
2019-02-06T21:55:17.252Z,5.53
2019-02-06T21:57:49.461Z,5.55
2019-02-06T22:00:24.929Z,5.63
2019-02-06T22:02:55.493Z,5.59
2019-02-06T22:05:27.693Z,5.59
2019-02-06T22:08:02.655Z,5.62
2019-02-06T22:10:35.048Z,5.60
2019-02-06T22:13:06.366Z,5.60
2019-02-06T22:15:37.046Z,5.67
2019-02-06T22:18:07.830Z,5.69
2019-02-06T22:20:38.375Z,5.68
2019-02-06T22:23:14.188Z,5.70
2019-02-06T22:25:46.416Z,5.71
2019-02-06T22:28:18.805Z,5.74
2019-02-06T22:30:49.785Z,5.74
2019-02-06T22:33:46.788Z,5.74
2019-02-06T22:36:14.631Z,5.73
2019-02-06T22:38:43.462Z,5.69
2019-02-06T22:41:07.565Z,5.69
2019-02-06T22:43:38.252Z,5.67
2019-02-06T22:46:10.568Z,5.60
2019-02-06T22:48:41.259Z,5.54
2019-02-06T22:51:16.546Z,5.47
2019-02-06T22:53:47.231Z,5.43
2019-02-06T22:56:18.011Z,5.39
2019-02-06T22:58:48.621Z,5.34
2019-02-06T23:01:37.483Z,5.34
2019-02-06T23:04:08.087Z,5.31
2019-02-06T23:06:38.780Z,5.23
2019-02-06T23:09:09.609Z,5.23
2019-02-06T23:11:40.265Z,5.26
2019-02-06T23:14:17.196Z,5.25
2019-02-06T23:16:43.347Z,5.25
2019-02-06T23:19:26.178Z,5.22
2019-02-06T23:22:11.866Z,5.18
2019-02-06T23:24:50.005Z,5.18
2019-02-06T23:27:40.397Z,5.19
2019-02-06T23:30:25.684Z,5.16
2019-02-06T23:33:02.055Z,5.16
2019-02-06T23:35:57.911Z,5.14
2019-02-06T23:39:09.652Z,5.12
2019-02-06T23:40:51.481Z,5.10
2019-02-06T23:43:21.988Z,5.10
2019-02-06T23:45:53.829Z,5.09
2019-02-06T23:48:27.698Z,5.10
2019-02-06T23:51:07.458Z,5.09
2019-02-06T23:53:41.359Z,5.08
2019-02-06T23:56:14.185Z,5.06
2019-02-06T23:58:44.588Z,5.06
